Lockwood, MO (65682)

12:47 AM CDT on May 26, 2015 (GMT -0500)
Greenfield West (WOHSN) | | Change Station
CLOSE
Current Station
Personal Weather Station
Location: Greenfield, MO
Elevation: 1066 ft
Nearby Weather Stations

Elev 1066 ft 37.42 °N, 93.85 °W | Updated 14 minutes ago

Overcast
Overcast
66.6 °F
Feels Like 66.6 °F
N
7.3
Wind Variable Wind from East

Today
High -- | Low -- °F
--% Chance of Precip.
Yesterday
High -- | Low -- °F
Precip. -- in
5:59 AM 8:26 PM
First Quarter, 55% visible
Pressure 29.78 in
Visibility 10.0 miles
Clouds Few 12000 ft
Dew Point 64 °F
Humidity 90%
Rainfall 0.00 in
Snow Depth Not available.
UV 0 out of 12
Pollen 8.10 out of 12
Air Quality Not available.
Flu Activity Sporadic
METAR KSGF 260452Z 14017G26KT 10SM FEW120 19/17 A2982 RMK AO2 PK WND 12026/0450 RAE18 SLP085 P0000 T01940172

More Conditions Fewer Conditions

Pressure 29.78 in
Visibility 10.0 miles
Clouds Few 12000 ft
Dew Point 64 °F
Humidity 90%
Rainfall 0.00 in
Snow Depth Not available.
UV 0 out of 12
Pollen 8.10 out of 12
Air Quality Not available.
Flu Activity Sporadic
METAR KSGF 260452Z 14017G26KT 10SM FEW120 19/17 A2982 RMK AO2 PK WND 12026/0450 RAE18 SLP085 P0000 T01940172

More Conditions Fewer Conditions

10-Day Weather Forecast

Almanac

Astronomy

May. 26, 2015 Rise Set
Actual Time
Civil Twilight
Nautical Twilight
Astronomical Twilight
Moon
Length of Visible Light
Length of Day
Tomorrow will be .
, % of the Moon is Illuminated

Today's Extremes

State Highs State Lows

Community

WunderPhotos

Upload Photos

1,824,289 photos uploaded!

WunderBlogs® & News

Nearby

Air Quality

  Air Quality AQ Index Pollutant
Not available.

Snow Depth

Station Depth Elevation

Earthquake Activity

City Distance Mag. Time & Date
Minimum magnitude displayed is 2.5.

Coastal Water Temperatures

Place Temperature

Stations

Nearby Weather Stations

Station Location Temp. Windchill Dew Point Humidity Wind Precip. Elev Updated Type